Time;durP1;ratioP1;P1;durP2;ratioP2;P2;SDS_P1;SDS_P2;PMS_P1;PMS_P2;Temp;Humidity;BMP_temperature;BMP_pressure;BME280_temperature;BME280_humidity;BME280_pressure;Samples;Min_cycle;Max_cycle;Signal;HPM_P1;HPM_P2
2023/06/02 00:01:00;;;;;;;4.60;3.45;;;15.10;99.90;;;;;;5015233;28;20026;-77
2023/06/02 00:03:32;;;;;;;3.60;2.97;;;15.10;99.90;;;;;;4997311;28;20032;-76
2023/06/02 00:06:01;;;;;;;9.07;3.25;;;15.20;99.90;;;;;;5014399;28;20017;-76
2023/06/02 00:08:27;;;;;;;3.00;2.42;;;15.20;99.90;;;;;;5013882;28;20109;-76
2023/06/02 00:10:53;;;;;;;5.90;2.67;;;15.00;99.90;;;;;;5014356;28;20022;-77
2023/06/02 00:13:19;;;;;;;5.38;3.22;;;15.10;99.90;;;;;;4997090;28;20033;-75
2023/06/02 00:15:45;;;;;;;4.55;2.83;;;15.10;99.90;;;;;;5014282;28;20029;-77
2023/06/02 00:18:11;;;;;;;3.35;3.05;;;15.10;99.90;;;;;;5017082;28;20083;-76
2023/06/02 00:20:37;;;;;;;4.28;2.92;;;15.10;99.90;;;;;;5015961;28;20442;-76
2023/06/02 00:23:03;;;;;;;4.05;3.20;;;15.10;99.90;;;;;;5013555;28;20032;-77
2023/06/02 00:25:33;;;;;;;4.18;2.60;;;15.10;99.90;;;;;;4996522;28;20122;-77
2023/06/02 00:27:58;;;;;;;5.78;3.45;;;15.10;99.90;;;;;;5013858;28;20026;-76
2023/06/02 00:30:24;;;;;;;6.68;3.50;;;15.10;99.90;;;;;;5014514;28;20069;-77
2023/06/02 00:32:50;;;;;;;3.30;2.78;;;15.00;99.90;;;;;;4996602;28;20533;-76
2023/06/02 00:35:15;;;;;;;2.83;2.60;;;15.00;99.90;;;;;;4996692;28;20029;-77
2023/06/02 00:37:41;;;;;;;5.90;3.42;;;15.10;99.90;;;;;;5013564;28;20061;-77
2023/06/02 00:40:07;;;;;;;4.50;3.20;;;15.00;99.90;;;;;;4996588;28;20203;-77
2023/06/02 00:42:33;;;;;;;3.63;2.67;;;15.00;99.90;;;;;;5013918;28;20022;-76
2023/06/02 00:44:59;;;;;;;2.60;2.38;;;15.10;99.90;;;;;;5013913;28;20510;-76
2023/06/02 00:47:24;;;;;;;4.38;2.97;;;15.00;99.90;;;;;;5013827;28;20467;-77
2023/06/02 00:49:50;;;;;;;3.75;3.20;;;15.10;99.90;;;;;;5013406;28;20026;-76
2023/06/02 00:52:18;;;;;;;6.35;3.10;;;15.10;99.90;;;;;;4996522;28;20018;-76
2023/06/02 00:54:44;;;;;;;4.60;2.85;;;15.10;99.90;;;;;;4996381;28;20025;-77
2023/06/02 00:57:09;;;;;;;3.33;2.55;;;15.10;99.90;;;;;;5013877;28;20037;-76
2023/06/02 00:59:37;;;;;;;3.40;2.58;;;15.10;99.90;;;;;;5013943;28;20022;-77
2023/06/02 01:02:02;;;;;;;3.70;2.88;;;15.10;99.90;;;;;;4996509;28;20060;-77
2023/06/02 01:04:30;;;;;;;4.20;3.15;;;15.00;99.90;;;;;;4996523;28;20057;-77
2023/06/02 01:07:02;;;;;;;3.85;3.00;;;15.00;99.90;;;;;;4996391;28;20017;-77
2023/06/02 01:09:29;;;;;;;7.97;2.75;;;15.00;99.90;;;;;;4995724;28;20084;-77
2023/06/02 01:11:56;;;;;;;6.75;2.65;;;15.10;99.90;;;;;;4996241;28;20036;-77
2023/06/02 01:14:22;;;;;;;5.57;3.30;;;15.10;99.90;;;;;;5013256;28;20027;-76
2023/06/02 01:16:51;;;;;;;5.68;2.90;;;15.00;99.90;;;;;;5013998;28;20080;-77
2023/06/02 01:19:21;;;;;;;5.65;3.25;;;14.90;99.90;;;;;;4995260;28;20026;-77
2023/06/02 01:21:58;;;;;;;4.68;2.60;;;14.90;99.90;;;;;;5013679;28;20406;-77
2023/06/02 01:24:35;;;;;;;5.60;2.83;;;14.70;99.90;;;;;;4996493;28;20148;-77
2023/06/02 01:27:06;;;;;;;4.38;2.60;;;14.80;99.90;;;;;;5013924;28;20028;-77
2023/06/02 01:29:35;;;;;;;2.92;2.63;;;14.70;99.90;;;;;;5013461;28;20395;-78
2023/06/02 01:32:22;;;;;;;3.30;2.40;;;14.70;99.90;;;;;;5013765;28;20022;-76
2023/06/02 01:34:53;;;;;;;3.13;2.53;;;14.60;99.90;;;;;;5012686;28;20038;-77
2023/06/02 01:37:21;;;;;;;3.67;2.60;;;14.50;99.90;;;;;;4995708;28;20030;-77
2023/06/02 01:39:49;;;;;;;3.38;2.63;;;14.50;99.90;;;;;;4995715;28;20072;-76
2023/06/02 01:42:16;;;;;;;3.08;2.58;;;14.50;99.90;;;;;;5013451;28;20025;-77
2023/06/02 01:44:43;;;;;;;6.50;3.05;;;14.40;99.90;;;;;;4995940;28;20037;-76
2023/06/02 01:47:12;;;;;;;3.42;2.65;;;14.40;99.90;;;;;;5013600;28;20026;-77
2023/06/02 01:49:37;;;;;;;2.88;2.55;;;14.30;99.90;;;;;;5000818;28;20612;-77
2023/06/02 01:52:03;;;;;;;2.60;2.28;;;14.30;99.90;;;;;;5015958;28;20055;-77
2023/06/02 01:54:29;;;;;;;2.80;2.47;;;14.40;99.90;;;;;;5033484;28;20381;-77
2023/06/02 01:56:54;;;;;;;5.63;3.00;;;14.20;99.90;;;;;;5033006;28;20021;-77
2023/06/02 01:59:20;;;;;;;3.65;2.65;;;14.20;99.90;;;;;;5032471;28;20033;-77
2023/06/02 02:01:46;;;;;;;3.92;2.88;;;14.10;99.90;;;;;;5015363;28;20477;-77
2023/06/02 02:04:12;;;;;;;4.30;2.80;;;14.10;99.90;;;;;;5032547;28;20105;-76
2023/06/02 02:06:39;;;;;;;3.67;2.80;;;14.10;99.90;;;;;;5032787;28;20021;-76
2023/06/02 02:09:07;;;;;;;2.42;2.20;;;14.10;99.90;;;;;;5032031;28;20029;-76
2023/06/02 02:11:33;;;;;;;3.15;2.67;;;14.10;99.90;;;;;;5032614;28;20025;-76
2023/06/02 02:14:00;;;;;;;3.08;2.38;;;14.10;99.90;;;;;;5014954;28;20221;-76
2023/06/02 02:16:26;;;;;;;2.58;2.20;;;14.00;99.90;;;;;;5033100;28;20025;-76
2023/06/02 02:18:56;;;;;;;3.10;2.15;;;14.00;99.90;;;;;;5032605;28;20030;-76
2023/06/02 02:21:22;;;;;;;3.10;2.47;;;14.00;99.90;;;;;;5014798;28;20105;-76
2023/06/02 02:23:47;;;;;;;3.47;2.22;;;14.00;99.90;;;;;;5014742;28;20030;-77
2023/06/02 02:26:13;;;;;;;3.70;2.28;;;13.90;99.90;;;;;;5032425;28;20025;-76
2023/06/02 02:28:39;;;;;;;2.45;2.25;;;13.90;99.90;;;;;;5014816;28;20041;-77
2023/06/02 02:31:04;;;;;;;4.50;2.40;;;13.80;99.90;;;;;;5034488;28;20064;-77
2023/06/02 02:33:30;;;;;;;3.83;2.78;;;13.80;99.90;;;;;;5035859;28;20030;-77
2023/06/02 02:35:56;;;;;;;3.25;2.72;;;13.80;99.90;;;;;;5017953;28;20544;-76
2023/06/02 02:38:22;;;;;;;3.35;2.83;;;13.80;99.90;;;;;;5035891;28;20481;-77
2023/06/02 02:40:48;;;;;;;3.08;2.47;;;13.80;99.90;;;;;;5035599;28;20067;-76
2023/06/02 02:43:15;;;;;;;4.40;2.75;;;13.80;99.90;;;;;;5017978;28;20029;-76
2023/06/02 02:45:41;;;;;;;3.17;2.50;;;13.70;99.90;;;;;;5035703;28;20393;-76
2023/06/02 02:48:07;;;;;;;4.43;2.88;;;13.60;99.90;;;;;;5017765;28;20021;-76
2023/06/02 02:50:33;;;;;;;3.17;2.58;;;13.60;99.90;;;;;;5035564;28;20096;-76
2023/06/02 02:52:58;;;;;;;3.90;3.05;;;13.50;99.90;;;;;;5017476;28;20063;-77
2023/06/02 02:55:25;;;;;;;4.82;3.05;;;13.40;99.90;;;;;;5034730;28;20441;-76
2023/06/02 02:57:51;;;;;;;5.85;3.35;;;13.40;99.90;;;;;;5035056;28;20100;-76
2023/06/02 03:00:17;;;;;;;4.43;3.28;;;13.40;99.90;;;;;;5017410;28;20029;-76
2023/06/02 03:02:42;;;;;;;4.13;2.85;;;13.40;99.90;;;;;;5035487;28;20026;-76
2023/06/02 03:05:10;;;;;;;7.00;3.95;;;13.30;99.90;;;;;;5017334;28;20504;-76
2023/06/02 03:07:39;;;;;;;6.07;3.40;;;13.30;99.90;;;;;;5017151;28;20021;-76
2023/06/02 03:10:06;;;;;;;6.35;3.25;;;13.30;99.90;;;;;;5035222;28;20104;-76
2023/06/02 03:12:31;;;;;;;3.78;2.78;;;13.30;99.90;;;;;;5017184;28;20025;-77
2023/06/02 03:14:58;;;;;;;5.85;3.10;;;13.40;99.90;;;;;;5034714;28;20018;-76
2023/06/02 03:17:27;;;;;;;4.70;3.00;;;13.40;99.90;;;;;;5034857;28;20064;-76
2023/06/02 03:19:55;;;;;;;7.68;4.00;;;13.40;99.90;;;;;;5017317;28;20026;-76
2023/06/02 03:22:20;;;;;;;6.30;3.00;;;13.40;99.90;;;;;;5017347;28;20033;-76
2023/06/02 03:24:46;;;;;;;4.00;3.40;;;13.40;99.90;;;;;;5017056;28;20032;-76
2023/06/02 03:27:15;;;;;;;4.38;3.40;;;13.40;99.90;;;;;;5035119;28;20249;-76
2023/06/02 03:29:42;;;;;;;5.20;3.17;;;13.50;99.90;;;;;;5017192;28;20110;-76
2023/06/02 03:32:11;;;;;;;4.55;3.15;;;13.50;99.90;;;;;;5034938;28;20048;-77
2023/06/02 03:34:39;;;;;;;4.85;3.45;;;13.60;99.90;;;;;;5016837;28;20034;-76
2023/06/02 03:37:08;;;;;;;4.80;3.65;;;13.70;99.90;;;;;;5034405;28;20100;-77
2023/06/02 03:39:34;;;;;;;6.03;3.97;;;13.80;99.90;;;;;;5034175;28;20539;-76
2023/06/02 03:42:00;;;;;;;4.20;3.10;;;13.90;99.90;;;;;;5033853;28;20033;-76
2023/06/02 03:44:25;;;;;;;4.35;3.30;;;13.90;99.90;;;;;;5034238;28;20028;-76
2023/06/02 03:46:51;;;;;;;5.15;4.15;;;13.90;99.90;;;;;;5034790;28;20022;-77
2023/06/02 03:49:17;;;;;;;4.60;3.70;;;13.90;99.90;;;;;;5034257;28;20025;-77
2023/06/02 03:51:43;;;;;;;7.32;3.40;;;13.90;99.90;;;;;;5034087;28;20029;-76
2023/06/02 03:54:09;;;;;;;4.85;3.88;;;13.90;99.90;;;;;;5034779;28;20026;-77
2023/06/02 03:56:34;;;;;;;4.65;3.58;;;14.00;99.90;;;;;;5016408;28;20398;-77
2023/06/02 03:59:00;;;;;;;7.10;3.97;;;14.10;99.90;;;;;;5016453;28;20167;-76
2023/06/02 04:01:27;;;;;;;5.50;4.13;;;14.10;99.90;;;;;;5034455;28;20052;-76
2023/06/02 04:03:52;;;;;;;4.75;3.63;;;14.10;99.90;;;;;;5034599;28;20025;-78
2023/06/02 04:06:18;;;;;;;6.72;3.38;;;14.10;99.90;;;;;;5016423;28;20018;-76
2023/06/02 04:08:45;;;;;;;6.55;3.75;;;14.10;99.90;;;;;;5016512;28;20039;-76
2023/06/02 04:11:11;;;;;;;4.90;4.00;;;14.20;99.90;;;;;;5033716;28;20014;-76
2023/06/02 04:13:36;;;;;;;6.00;3.90;;;14.20;99.90;;;;;;5033674;28;20105;-76
2023/06/02 04:16:02;;;;;;;6.15;3.80;;;14.20;99.90;;;;;;5015689;28;20032;-77
2023/06/02 04:18:30;;;;;;;5.28;4.45;;;14.20;99.90;;;;;;5015778;28;20033;-77
2023/06/02 04:20:57;;;;;;;5.07;3.83;;;14.20;99.90;;;;;;5016069;28;20404;-76
2023/06/02 04:23:22;;;;;;;7.50;4.18;;;14.30;99.90;;;;;;5033226;28;20048;-77
2023/06/02 04:25:48;;;;;;;5.95;4.38;;;14.30;99.90;;;;;;5033429;28;20474;-76
2023/06/02 04:28:15;;;;;;;4.30;3.90;;;14.20;99.90;;;;;;5015471;28;20117;-77
2023/06/02 04:30:40;;;;;;;5.80;3.65;;;14.30;99.90;;;;;;5034000;28;20105;-77
2023/06/02 04:33:06;;;;;;;6.95;4.32;;;14.30;99.90;;;;;;5034102;28;20056;-77
2023/06/02 04:35:32;;;;;;;7.93;4.35;;;14.40;99.90;;;;;;5015837;28;20064;-76
2023/06/02 04:37:58;;;;;;;5.93;4.72;;;14.50;99.90;;;;;;5033481;28;20044;-76
2023/06/02 04:40:24;;;;;;;12.43;4.50;;;14.50;99.90;;;;;;5033390;28;20026;-76
2023/06/02 04:42:49;;;;;;;6.90;4.78;;;14.60;99.90;;;;;;5033123;28;20041;-77
2023/06/02 04:45:16;;;;;;;5.22;4.20;;;14.70;99.90;;;;;;5014909;28;20025;-77
2023/06/02 04:47:42;;;;;;;6.93;4.65;;;14.80;99.90;;;;;;5034498;28;20017;-77
2023/06/02 04:50:09;;;;;;;7.72;5.40;;;15.00;99.90;;;;;;5014053;28;20102;-77
2023/06/02 04:52:39;;;;;;;7.13;6.22;;;15.80;99.90;;;;;;5002551;28;20029;-77
2023/06/02 04:55:08;;;;;;;7.80;5.50;;;16.90;99.90;;;;;;5014754;28;20057;-78
2023/06/02 04:57:34;;;;;;;4.53;3.95;;;17.30;99.90;;;;;;5017456;28;20026;-77
2023/06/02 05:00:01;;;;;;;5.57;4.60;;;17.30;99.90;;;;;;5016984;28;20518;-77
2023/06/02 05:02:26;;;;;;;5.63;4.82;;;17.30;99.90;;;;;;5017263;28;20116;-77
2023/06/02 05:04:52;;;;;;;6.38;4.10;;;17.70;99.90;;;;;;5016877;28;20057;-77
2023/06/02 05:07:19;;;;;;;5.85;4.40;;;18.40;99.90;;;;;;5016776;28;20018;-78
2023/06/02 05:09:45;;;;;;;5.72;4.18;;;18.10;99.90;;;;;;5000152;28;20026;-77
2023/06/02 05:12:11;;;;;;;5.47;4.50;;;18.30;99.90;;;;;;4999667;28;20475;-78
2023/06/02 05:14:36;;;;;;;14.45;7.32;;;18.30;99.90;;;;;;5018233;28;20026;-78
2023/06/02 05:17:02;;;;;;;9.65;5.30;;;18.60;99.90;;;;;;5017798;28;20085;-77
2023/06/02 05:19:28;;;;;;;5.20;4.28;;;18.60;99.90;;;;;;5017708;28;20030;-78
2023/06/02 05:21:54;;;;;;;5.20;4.40;;;18.70;99.90;;;;;;5017539;28;20475;-78
2023/06/02 05:24:20;;;;;;;6.38;4.13;;;18.60;99.90;;;;;;5018218;28;20037;-78
2023/06/02 05:26:45;;;;;;;16.45;5.63;;;19.10;99.90;;;;;;5001283;28;20110;-77
2023/06/02 05:29:11;;;;;;;5.85;5.18;;;19.20;99.90;;;;;;4999972;28;20026;-77
2023/06/02 05:31:37;;;;;;;8.35;4.97;;;19.50;99.90;;;;;;5018658;28;20018;-78
2023/06/02 05:34:03;;;;;;;5.40;3.85;;;19.30;99.90;;;;;;5000369;28;20030;-77
2023/06/02 05:36:28;;;;;;;4.03;3.17;;;19.30;99.90;;;;;;5018423;28;20507;-77
2023/06/02 05:38:54;;;;;;;6.35;3.35;;;19.30;99.90;;;;;;5017856;28;20064;-77
2023/06/02 05:41:20;;;;;;;7.28;3.45;;;19.60;99.90;;;;;;4999775;28;20080;-77
2023/06/02 05:43:45;;;;;;;6.63;3.75;;;19.50;99.80;;;;;;5000567;28;20525;-77
2023/06/02 05:46:11;;;;;;;4.35;3.95;;;19.60;99.30;;;;;;5000638;28;20018;-78
2023/06/02 05:48:38;;;;;;;6.03;3.72;;;19.90;98.80;;;;;;5008372;28;20021;-78
2023/06/02 05:51:04;;;;;;;3.78;3.45;;;20.00;98.10;;;;;;5021367;28;20509;-78
2023/06/02 05:53:30;;;;;;;4.88;3.50;;;20.00;97.90;;;;;;5037650;28;20034;-77
2023/06/02 05:55:55;;;;;;;8.70;4.90;;;20.00;97.50;;;;;;5019669;28;20018;-76
2023/06/02 05:58:21;;;;;;;6.65;3.53;;;20.10;97.40;;;;;;5015874;28;20076;-78
2023/06/02 06:00:46;;;;;;;3.75;3.45;;;20.20;97.20;;;;;;5022252;28;20028;-77
2023/06/02 06:03:13;;;;;;;4.50;3.65;;;20.20;97.40;;;;;;5039409;28;20022;-77
2023/06/02 06:05:39;;;;;;;4.43;3.85;;;20.30;97.40;;;;;;5041457;28;20030;-78
2023/06/02 06:08:05;;;;;;;4.18;3.15;;;20.20;96.90;;;;;;5041579;28;20117;-77
2023/06/02 06:10:31;;;;;;;4.03;3.25;;;20.20;97.20;;;;;;5043536;28;20029;-78
2023/06/02 06:12:56;;;;;;;4.43;3.45;;;20.20;97.40;;;;;;5025937;28;20029;-78
2023/06/02 06:15:22;;;;;;;5.45;3.30;;;20.30;97.40;;;;;;5025567;28;20040;-77
2023/06/02 06:17:52;;;;;;;4.57;3.55;;;20.40;97.30;;;;;;5043388;28;20025;-78
2023/06/02 06:20:19;;;;;;;10.48;3.70;;;20.60;97.00;;;;;;5043553;28;20124;-78
2023/06/02 06:22:45;;;;;;;9.48;3.67;;;20.50;97.10;;;;;;5026099;28;20116;-78
2023/06/02 06:25:10;;;;;;;4.15;3.38;;;20.60;96.60;;;;;;5026278;28;20041;-77
2023/06/02 06:27:37;;;;;;;7.75;3.65;;;20.60;96.60;;;;;;5019646;28;20017;-78
2023/06/02 06:30:04;;;;;;;5.50;3.22;;;20.60;96.50;;;;;;5018764;28;20105;-78
2023/06/02 06:32:30;;;;;;;4.40;3.22;;;20.80;96.60;;;;;;5022989;28;20466;-78
2023/06/02 06:34:56;;;;;;;3.17;2.83;;;21.00;95.70;;;;;;5024643;28;20021;-78
2023/06/02 06:37:21;;;;;;;6.60;2.83;;;21.10;95.00;;;;;;5015838;28;20025;-77
2023/06/02 06:39:47;;;;;;;3.60;2.92;;;21.20;94.20;;;;;;5038081;28;20025;-77
2023/06/02 06:42:13;;;;;;;4.00;2.67;;;21.20;95.10;;;;;;5024815;28;20032;-78
2023/06/02 06:44:38;;;;;;;4.70;3.22;;;21.50;93.60;;;;;;5025233;28;20037;-78
2023/06/02 06:47:04;;;;;;;6.85;3.67;;;21.80;93.60;;;;;;5042464;28;20032;-78
2023/06/02 06:49:30;;;;;;;3.05;2.67;;;21.90;92.60;;;;;;5026293;28;20040;-78
2023/06/02 06:51:56;;;;;;;3.85;3.08;;;21.90;92.60;;;;;;5024749;28;20048;-77
2023/06/02 06:54:21;;;;;;;4.00;2.97;;;22.10;92.50;;;;;;5043144;28;20513;-78
2023/06/02 06:56:47;;;;;;;3.35;3.05;;;22.30;91.90;;;;;;5040578;28;20025;-77
2023/06/02 06:59:13;;;;;;;2.95;2.55;;;22.30;91.80;;;;;;5038656;28;20036;-78
2023/06/02 07:01:38;;;;;;;3.50;2.78;;;22.40;91.50;;;;;;5020847;28;20031;-77
2023/06/02 07:04:04;;;;;;;3.17;2.58;;;22.50;90.80;;;;;;5020683;28;20441;-77
2023/06/02 07:06:31;;;;;;;3.22;2.92;;;22.80;89.90;;;;;;5040239;28;20026;-78
2023/06/02 07:08:57;;;;;;;3.30;3.00;;;23.00;87.00;;;;;;5042710;28;20067;-78
2023/06/02 07:11:22;;;;;;;4.05;2.78;;;23.10;86.10;;;;;;5024903;28;20022;-78
2023/06/02 07:13:48;;;;;;;2.72;2.40;;;23.30;85.30;;;;;;5039419;28;20053;-78
2023/06/02 07:16:14;;;;;;;7.55;2.45;;;23.30;81.00;;;;;;5020210;28;20453;-77
2023/06/02 07:18:39;;;;;;;5.80;2.70;;;23.60;80.60;;;;;;5020334;28;20517;-77
2023/06/02 07:21:05;;;;;;;3.63;2.58;;;23.60;78.00;;;;;;5021183;28;20584;-79
2023/06/02 07:23:32;;;;;;;5.25;3.10;;;23.80;78.00;;;;;;5020146;28;20057;-77
2023/06/02 07:25:57;;;;;;;2.75;2.25;;;24.00;79.40;;;;;;5018169;28;20466;-77
2023/06/02 07:28:23;;;;;;;5.63;2.65;;;24.30;78.50;;;;;;5020059;28;20037;-77
2023/06/02 07:30:51;;;;;;;3.60;2.58;;;24.60;77.10;;;;;;5037913;28;20022;-76
2023/06/02 07:33:18;;;;;;;3.92;2.95;;;24.90;76.60;;;;;;5018999;28;20056;-77
2023/06/02 07:35:43;;;;;;;4.70;2.95;;;25.00;75.50;;;;;;5013541;28;20022;-75
2023/06/02 07:38:09;;;;;;;4.55;2.65;;;25.00;75.10;;;;;;5037142;28;20044;-77
2023/06/02 07:40:35;;;;;;;3.03;2.38;;;25.10;75.00;;;;;;5038260;28;20493;-80
2023/06/02 07:43:00;;;;;;;4.43;2.90;;;25.20;75.90;;;;;;5019996;28;20017;-77
2023/06/02 07:45:26;;;;;;;6.85;2.33;;;25.10;75.50;;;;;;5017891;28;20033;-76
2023/06/02 07:47:52;;;;;;;2.85;2.40;;;25.10;75.70;;;;;;5036137;28;20045;-77
2023/06/02 07:50:18;;;;;;;8.13;2.90;;;25.10;76.40;;;;;;5036001;28;20100;-77
2023/06/02 07:52:47;;;;;;;5.50;3.03;;;24.90;75.00;;;;;;5038888;28;20043;-77
2023/06/02 07:55:13;;;;;;;3.38;2.70;;;25.00;76.50;;;;;;5038674;28;20105;-76
2023/06/02 07:57:39;;;;;;;4.38;2.92;;;25.00;76.30;;;;;;5039434;28;20442;-77
2023/06/02 08:00:15;;;;;;;5.18;3.00;;;25.20;73.60;;;;;;5037926;28;20105;-76
2023/06/02 08:02:46;;;;;;;5.00;2.80;;;25.30;75.40;;;;;;5016434;28;20087;-76
2023/06/02 08:05:16;;;;;;;3.50;2.55;;;25.50;70.50;;;;;;5037383;28;20018;-76
2023/06/02 08:07:43;;;;;;;5.05;2.42;;;25.50;66.90;;;;;;5022435;28;20030;-76
2023/06/02 08:10:10;;;;;;;3.20;2.40;;;25.60;66.80;;;;;;5037480;28;20022;-77
2023/06/02 08:12:36;;;;;;;3.08;2.08;;;25.70;71.90;;;;;;5034771;28;20022;-77
2023/06/02 08:15:02;;;;;;;4.38;2.90;;;26.00;72.00;;;;;;5011232;28;20504;-77
2023/06/02 08:17:31;;;;;;;2.70;2.20;;;26.20;72.50;;;;;;5005649;28;20069;-77
2023/06/02 08:20:01;;;;;;;5.50;3.00;;;26.40;69.20;;;;;;5035516;28;20026;-77
2023/06/02 08:22:28;;;;;;;5.40;2.95;;;26.60;71.30;;;;;;5033875;28;20370;-76
2023/06/02 08:24:54;;;;;;;3.55;2.83;;;26.70;72.30;;;;;;5033109;28;20152;-75
2023/06/02 08:27:21;;;;;;;3.58;3.00;;;26.70;73.20;;;;;;5015934;28;20520;-77
2023/06/02 08:29:51;;;;;;;3.25;2.70;;;26.70;75.30;;;;;;5019607;28;20029;-78
2023/06/02 08:32:24;;;;;;;3.00;2.55;;;26.80;71.80;;;;;;5019652;28;20070;-76
2023/06/02 08:34:50;;;;;;;5.30;2.67;;;27.10;69.10;;;;;;5036649;28;20108;-77
2023/06/02 08:37:20;;;;;;;4.80;2.78;;;27.30;67.60;;;;;;5036737;28;20040;-79
2023/06/02 08:39:47;;;;;;;5.18;2.78;;;27.30;67.00;;;;;;5038354;28;20026;-78
2023/06/02 08:42:14;;;;;;;2.70;2.08;;;27.40;67.60;;;;;;5036095;28;20053;-76
2023/06/02 08:44:43;;;;;;;4.68;2.30;;;27.60;65.90;;;;;;5036875;28;20025;-78
2023/06/02 08:47:13;;;;;;;2.35;2.15;;;27.80;63.90;;;;;;5036740;28;20025;-76
2023/06/02 08:49:43;;;;;;;5.45;2.60;;;27.80;63.70;;;;;;5021354;28;20014;-75
2023/06/02 08:52:15;;;;;;;3.05;2.30;;;27.90;61.10;;;;;;5036723;28;20017;-77
2023/06/02 08:54:41;;;;;;;4.82;2.42;;;28.10;63.10;;;;;;5035100;28;20494;-76
2023/06/02 08:57:09;;;;;;;5.00;2.63;;;28.30;62.40;;;;;;5015651;28;20032;-76
2023/06/02 08:59:36;;;;;;;4.60;2.10;;;28.50;60.10;;;;;;5039257;28;20041;-76
2023/06/02 09:02:01;;;;;;;3.63;2.80;;;28.60;59.00;;;;;;5037471;28;20030;-76
2023/06/02 09:04:28;;;;;;;4.00;1.98;;;28.30;57.20;;;;;;5014615;28;20033;-74
2023/06/02 09:07:11;;;;;;;2.63;2.33;;;28.00;57.30;;;;;;5032216;28;20024;-74
2023/06/02 09:09:45;;;;;;;2.63;2.17;;;28.00;55.60;;;;;;5032064;28;20420;-74
2023/06/02 09:12:12;;;;;;;1.73;1.63;;;28.10;56.80;;;;;;5015563;28;20029;-75
2023/06/02 09:14:38;;;;;;;3.47;2.28;;;28.30;55.90;;;;;;5014757;28;20060;-76
2023/06/02 09:17:30;;;;;;;3.22;2.47;;;28.20;56.10;;;;;;5033608;28;20117;-76
2023/06/02 09:19:58;;;;;;;2.33;2.13;;;28.10;57.90;;;;;;5033338;28;20025;-73
2023/06/02 09:22:24;;;;;;;3.10;2.70;;;28.00;56.70;;;;;;5032341;28;20028;-74
2023/06/02 09:24:52;;;;;;;5.22;2.97;;;27.90;55.50;;;;;;5032783;28;20469;-76
2023/06/02 09:27:18;;;;;;;2.95;2.08;;;28.20;55.60;;;;;;5015376;28;20088;-76
2023/06/02 09:29:48;;;;;;;2.60;1.65;;;28.20;54.50;;;;;;5008256;28;20489;-74
2023/06/02 09:32:18;;;;;;;2.83;2.20;;;28.50;55.60;;;;;;5016568;28;20025;-76
2023/06/02 09:34:45;;;;;;;2.80;2.28;;;28.30;53.10;;;;;;5011670;28;20036;-77
2023/06/02 09:37:18;;;;;;;3.30;2.50;;;28.00;54.40;;;;;;4995307;28;20434;-76
2023/06/02 09:39:49;;;;;;;2.55;1.60;;;28.20;55.90;;;;;;5013335;28;20030;-76
2023/06/02 09:42:16;;;;;;;2.50;1.92;;;28.00;53.90;;;;;;5014327;28;20037;-78
2023/06/02 09:45:10;;;;;;;3.42;2.20;;;27.80;55.20;;;;;;4997658;28;20498;-78
2023/06/02 09:47:43;;;;;;;2.35;2.15;;;27.40;56.60;;;;;;5012056;28;20022;-77
2023/06/02 09:50:09;;;;;;;6.20;2.38;;;27.30;58.50;;;;;;5014410;28;20021;-76
2023/06/02 09:52:35;;;;;;;4.90;2.00;;;27.10;59.40;;;;;;5016580;28;20021;-77
2023/06/02 09:55:01;;;;;;;2.47;1.98;;;26.70;57.50;;;;;;4997856;28;20033;-77
2023/06/02 09:57:29;;;;;;;5.40;2.33;;;26.60;59.10;;;;;;5000950;28;20026;-77
2023/06/02 09:59:57;;;;;;;6.80;2.15;;;26.70;60.20;;;;;;5020983;28;20022;-77
2023/06/02 10:02:23;;;;;;;6.10;2.65;;;26.60;61.20;;;;;;5001338;28;20533;-77
2023/06/02 10:04:48;;;;;;;2.72;2.25;;;26.40;60.40;;;;;;5001129;28;20026;-77
2023/06/02 10:07:38;;;;;;;7.25;2.75;;;26.10;59.40;;;;;;5001030;28;20050;-77
2023/06/02 10:10:10;;;;;;;2.45;2.03;;;26.00;61.00;;;;;;5019848;28;20026;-77
2023/06/02 10:13:08;;;;;;;3.13;2.25;;;25.70;60.80;;;;;;5018247;28;20018;-78
2023/06/02 10:15:53;;;;;;;3.13;2.28;;;25.50;59.90;;;;;;4962563;28;20034;-76
2023/06/02 10:18:50;;;;;;;3.75;2.60;;;25.30;64.60;;;;;;4995350;28;20026;-76
2023/06/02 10:21:22;;;;;;;2.60;2.08;;;25.00;67.00;;;;;;4995001;28;20026;-76
2023/06/02 10:23:59;;;;;;;3.05;1.58;;;24.40;63.90;;;;;;5012746;28;20026;-76
2023/06/02 10:26:48;;;;;;;3.60;1.58;;;24.00;61.60;;;;;;4994838;28;20026;-76
2023/06/02 10:29:15;;;;;;;2.72;1.63;;;23.60;60.90;;;;;;5012434;28;20079;-75
2023/06/02 10:31:43;;;;;;;4.95;1.83;;;23.40;62.40;;;;;;4994944;28;20050;-76
2023/06/02 10:34:08;;;;;;;3.65;1.60;;;23.20;63.80;;;;;;5012184;28;20109;-76
2023/06/02 10:36:56;;;;;;;2.97;2.17;;;23.10;63.70;;;;;;5012598;28;20049;-77
2023/06/02 10:39:35;;;;;;;3.25;1.90;;;23.00;65.00;;;;;;4995200;28;20037;-76
2023/06/02 10:42:07;;;;;;;2.50;1.63;;;23.00;72.60;;;;;;5012082;28;20026;-76
2023/06/02 10:44:33;;;;;;;2.35;1.83;;;22.70;80.70;;;;;;5011692;28;20510;-76
2023/06/02 10:47:17;;;;;;;3.35;2.28;;;22.60;87.00;;;;;;5012899;28;20026;-76
2023/06/02 10:50:01;;;;;;;2.97;2.38;;;22.50;90.70;;;;;;4995019;28;20080;-76
2023/06/02 10:52:33;;;;;;;3.20;2.25;;;22.30;95.00;;;;;;4995685;28;20033;-76
2023/06/02 10:55:08;;;;;;;4.63;2.40;;;22.10;95.80;;;;;;4997737;28;20483;-75
2023/06/02 10:57:49;;;;;;;2.60;2.00;;;21.90;96.80;;;;;;4997915;28;20026;-76
2023/06/02 11:00:39;;;;;;;3.53;2.50;;;21.70;96.20;;;;;;5014999;28;20029;-76
2023/06/02 11:03:22;;;;;;;3.20;2.47;;;21.80;95.70;;;;;;5015183;28;20414;-75
2023/06/02 11:05:54;;;;;;;5.70;2.55;;;21.70;96.90;;;;;;5020044;28;20390;-76
2023/06/02 11:08:23;;;;;;;3.60;1.92;;;21.50;96.00;;;;;;5001451;28;20497;-76
2023/06/02 11:11:00;;;;;;;2.10;1.70;;;21.30;87.10;;;;;;5014934;28;20119;-76
2023/06/02 11:13:29;;;;;;;6.55;2.90;;;21.30;93.00;;;;;;4997678;28;20395;-76
2023/06/02 11:15:55;;;;;;;2.83;2.05;;;21.30;92.10;;;;;;5014307;28;20022;-76
2023/06/02 11:18:33;;;;;;;3.42;2.13;;;21.10;91.50;;;;;;5014178;28;20028;-75
2023/06/02 11:21:02;;;;;;;10.38;2.90;;;20.90;92.50;;;;;;5014465;28;20022;-76
2023/06/02 11:23:28;;;;;;;4.40;2.33;;;20.80;93.20;;;;;;5014663;28;20471;-76
2023/06/02 11:26:00;;;;;;;5.63;2.75;;;20.80;93.80;;;;;;5014529;28;20104;-76
2023/06/02 11:28:26;;;;;;;5.03;2.22;;;20.80;94.30;;;;;;4997104;28;20095;-76
2023/06/02 11:31:14;;;;;;;8.07;2.45;;;20.70;94.00;;;;;;4997625;28;20171;-76
2023/06/02 11:33:51;;;;;;;10.13;2.40;;;20.80;93.60;;;;;;4997020;28;20018;-75
2023/06/02 11:36:24;;;;;;;4.30;2.20;;;20.90;93.80;;;;;;5014265;28;20018;-76
2023/06/02 11:38:49;;;;;;;5.47;2.42;;;21.00;93.80;;;;;;5014684;28;20022;-76
2023/06/02 11:41:21;;;;;;;4.18;2.25;;;20.90;94.20;;;;;;5014443;28;20018;-76
2023/06/02 11:43:48;;;;;;;5.30;2.28;;;20.90;93.70;;;;;;4996794;28;20034;-76
2023/06/02 11:46:18;;;;;;;3.85;2.20;;;20.90;93.50;;;;;;5013907;28;20019;-76
2023/06/02 11:48:45;;;;;;;2.97;2.30;;;21.10;92.40;;;;;;5013964;28;20033;-76
2023/06/02 11:51:13;;;;;;;4.40;2.50;;;21.00;92.20;;;;;;5031248;28;20045;-76
2023/06/02 11:53:44;;;;;;;4.40;2.72;;;20.90;92.70;;;;;;5015934;28;20475;-75
2023/06/02 11:56:12;;;;;;;4.20;2.50;;;20.80;92.70;;;;;;5033670;28;20026;-76
2023/06/02 11:58:45;;;;;;;3.42;2.63;;;21.00;93.10;;;;;;5033585;28;20485;-76
2023/06/02 12:01:17;;;;;;;6.25;2.47;;;21.20;92.80;;;;;;5033880;28;20044;-75
2023/06/02 12:04:06;;;;;;;5.70;2.50;;;21.30;92.70;;;;;;5014988;28;20021;-76
2023/06/02 12:06:34;;;;;;;2.92;2.60;;;21.30;92.00;;;;;;5033565;28;20365;-75
2023/06/02 12:09:13;;;;;;;3.40;2.50;;;21.50;91.80;;;;;;5024973;28;20026;-76
2023/06/02 12:11:39;;;;;;;4.63;2.80;;;21.50;91.90;;;;;;5033438;28;20022;-75
2023/06/02 12:14:06;;;;;;;3.95;2.47;;;21.60;91.90;;;;;;5015551;28;20029;-76
2023/06/02 12:16:34;;;;;;;3.95;2.17;;;21.70;91.10;;;;;;5015485;28;20025;-76
2023/06/02 12:19:20;;;;;;;3.05;2.25;;;21.60;90.90;;;;;;5033316;28;20075;-76
2023/06/02 12:21:47;;;;;;;8.20;2.80;;;21.60;90.40;;;;;;5032867;28;20079;-76
2023/06/02 12:24:43;;;;;;;3.80;2.13;;;21.80;90.00;;;;;;5016615;28;20107;-77
2023/06/02 12:27:10;;;;;;;;;;;21.90;89.20;;;;;;5033874;28;20093;-76
2023/06/02 12:29:36;;;;;;;4.40;2.70;;;22.00;87.60;;;;;;5033089;28;20484;-76
2023/06/02 12:32:03;;;;;;;2.63;2.17;;;22.30;87.50;;;;;;5015542;28;20102;-76
2023/06/02 12:34:29;;;;;;;4.68;2.72;;;22.50;86.80;;;;;;5033005;28;20061;-75
2023/06/02 12:36:55;;;;;;;3.28;2.03;;;22.70;99.90;;;;;;5033012;28;20026;-76
2023/06/02 12:39:21;;;;;;;7.03;2.28;;;22.80;88.70;;;;;;5015097;28;20501;-76
2023/06/02 12:41:47;;;;;;;5.25;2.30;;;23.10;88.50;;;;;;5015624;28;20124;-76
2023/06/02 12:44:13;;;;;;;2.85;2.20;;;23.00;85.40;;;;;;5032869;28;20029;-76
2023/06/02 12:46:39;;;;;;;2.72;2.13;;;23.00;83.30;;;;;;5032704;28;20021;-76
2023/06/02 12:49:05;;;;;;;2.15;1.52;;;23.10;84.00;;;;;;5014903;28;20116;-76
2023/06/02 12:51:34;;;;;;;2.97;1.75;;;23.30;81.40;;;;;;5032719;28;20478;-76
2023/06/02 12:54:00;;;;;;;3.92;2.20;;;23.30;82.60;;;;;;5014815;28;20029;-76